createdAt,value
2019-04-11T00:01:06.002Z,12.10
2019-04-11T00:03:37.404Z,11.60
2019-04-11T00:06:08.162Z,11.97
2019-04-11T00:08:38.865Z,11.10
2019-04-11T00:11:09.483Z,11.70
2019-04-11T00:13:41.043Z,12.00
2019-04-11T00:16:13.072Z,10.70
2019-04-11T00:18:44.933Z,10.00
2019-04-11T00:21:15.562Z,11.43
2019-04-11T00:23:46.158Z,10.63
2019-04-11T00:26:16.467Z,10.77
2019-04-11T00:28:47.964Z,10.90
2019-04-11T00:31:18.913Z,10.10
2019-04-11T00:33:50.730Z,9.40
2019-04-11T00:36:22.231Z,10.13
2019-04-11T00:38:53.097Z,9.07
2019-04-11T00:41:23.938Z,9.53
2019-04-11T00:43:56.707Z,9.73
2019-04-11T00:46:27.326Z,10.47
2019-04-11T00:48:57.794Z,10.33
2019-04-11T00:51:28.184Z,10.10
2019-04-11T00:53:58.564Z,10.27
2019-04-11T00:56:30.460Z,10.07
2019-04-11T00:59:00.890Z,10.23
2019-04-11T01:01:32.251Z,10.00
2019-04-11T01:04:03.377Z,9.43
2019-04-11T01:06:34.383Z,9.67
2019-04-11T01:09:06.339Z,9.07
2019-04-11T01:11:37.903Z,8.70
2019-04-11T01:14:09.906Z,8.83
2019-04-11T01:16:52.685Z,8.70
2019-04-11T01:19:23.230Z,8.10
2019-04-11T01:21:53.495Z,8.03
2019-04-11T01:24:24.079Z,8.47
2019-04-11T01:26:54.523Z,8.10
2019-04-11T01:29:25.226Z,9.40
2019-04-11T01:32:00.193Z,8.97
2019-04-11T01:34:31.095Z,9.03
2019-04-11T01:37:03.804Z,9.27
2019-04-11T01:40:09.707Z,9.70
2019-04-11T01:42:41.789Z,10.53
2019-04-11T01:45:13.587Z,17.23
2019-04-11T01:47:53.254Z,14.43
2019-04-11T01:50:27.153Z,12.00
2019-04-11T01:52:58.409Z,12.27
2019-04-11T01:55:29.267Z,13.27
2019-04-11T01:58:00.378Z,12.93
2019-04-11T02:00:53.206Z,13.73
2019-04-11T02:03:33.101Z,15.80
2019-04-11T02:06:05.464Z,14.97
2019-04-11T02:08:35.839Z,13.73
2019-04-11T02:11:07.041Z,12.87
2019-04-11T02:13:39.661Z,13.23
2019-04-11T02:16:10.588Z,12.90
2019-04-11T02:18:41.610Z,12.77
2019-04-11T02:21:12.134Z,14.90
2019-04-11T02:24:00.601Z,15.30
2019-04-11T02:26:35.548Z,15.70
2019-04-11T02:29:06.041Z,16.30
2019-04-11T02:31:37.642Z,15.37
2019-04-11T02:34:10.856Z,16.47
2019-04-11T02:36:42.782Z,17.30
2019-04-11T02:39:18.858Z,15.03
2019-04-11T02:41:46.846Z,15.97
2019-04-11T02:44:50.958Z,15.20
2019-04-11T02:46:58.031Z,14.43
2019-04-11T02:49:23.670Z,16.23
2019-04-11T02:51:55.994Z,18.23
2019-04-11T02:54:28.391Z,15.63
2019-04-11T02:57:00.402Z,17.10
2019-04-11T02:59:31.433Z,15.70
2019-04-11T03:02:02.309Z,17.37
2019-04-11T03:04:34.664Z,18.03
2019-04-11T03:07:05.872Z,18.03
2019-04-11T03:09:37.554Z,16.50
2019-04-11T03:12:11.490Z,15.97
2019-04-11T03:15:01.990Z,17.80
2019-04-11T03:17:20.758Z,17.13
2019-04-11T03:19:59.540Z,16.17
2019-04-11T03:22:20.268Z,18.17
2019-04-11T03:24:51.247Z,17.83
2019-04-11T03:27:26.047Z,19.23
2019-04-11T03:29:55.953Z,19.63
2019-04-11T03:37:58.682Z,18.73
2019-04-11T03:40:29.135Z,19.10
2019-04-11T03:42:52.481Z,19.60
2019-04-11T03:45:33.244Z,18.87
2019-04-11T03:47:57.655Z,25.73
2019-04-11T03:50:18.873Z,17.97
2019-04-11T03:52:46.961Z,21.60
2019-04-11T03:55:19.343Z,20.60
2019-04-11T03:57:51.843Z,20.33
2019-04-11T04:00:24.748Z,21.60
2019-04-11T04:02:57.433Z,21.13
2019-04-11T04:05:30.324Z,23.93
2019-04-11T04:08:03.491Z,23.87
2019-04-11T04:10:34.110Z,24.60
2019-04-11T04:13:10.996Z,24.27
2019-04-11T04:16:06.362Z,24.00
2019-04-11T04:18:43.745Z,23.43
2019-04-11T04:21:36.537Z,22.43
2019-04-11T04:24:29.998Z,20.33
2019-04-11T04:27:01.776Z,23.20
2019-04-11T04:29:34.318Z,19.93
2019-04-11T04:32:05.355Z,20.03
2019-04-11T04:34:36.786Z,18.13
2019-04-11T04:37:07.898Z,16.73
2019-04-11T04:39:40.304Z,17.93
2019-04-11T04:42:21.081Z,17.70
2019-04-11T04:44:45.129Z,15.67
2019-04-11T04:47:22.118Z,15.20
2019-04-11T04:49:48.181Z,15.87
2019-04-11T04:52:20.831Z,15.83
2019-04-11T04:54:52.891Z,14.50
2019-04-11T04:57:24.427Z,14.17
2019-04-11T04:59:55.548Z,13.67
2019-04-11T05:02:28.135Z,14.40
2019-04-11T05:04:58.818Z,16.13
2019-04-11T05:07:34.183Z,15.03
2019-04-11T05:10:03.252Z,9.60
2019-04-11T05:12:34.677Z,7.10
2019-04-11T05:15:05.504Z,7.30
2019-04-11T05:17:36.289Z,10.20
2019-04-11T05:20:09.187Z,11.50
2019-04-11T05:22:41.590Z,13.60
2019-04-11T05:25:12.606Z,14.00
2019-04-11T05:27:43.165Z,14.97
2019-04-11T05:30:14.669Z,15.47
2019-04-11T05:32:45.254Z,16.80
2019-04-11T05:35:16.520Z,17.47
2019-04-11T05:37:47.221Z,18.10
2019-04-11T05:40:17.861Z,18.07
2019-04-11T05:42:53.437Z,19.10
2019-04-11T05:45:22.894Z,18.23
2019-04-11T05:47:54.956Z,16.23
2019-04-11T05:50:36.707Z,14.03
2019-04-11T05:53:07.463Z,13.93
2019-04-11T05:55:43.316Z,12.03
2019-04-11T05:58:14.246Z,10.00
2019-04-11T06:00:55.823Z,9.43
2019-04-11T06:03:28.157Z,8.10
2019-04-11T06:06:10.729Z,8.03
2019-04-11T06:08:42.116Z,6.17
2019-04-11T06:11:30.609Z,7.43
2019-04-11T06:14:15.670Z,4.63
2019-04-11T06:16:52.583Z,4.10
2019-04-11T06:19:43.851Z,2.97
2019-04-11T06:22:14.880Z,2.67
2019-04-11T06:25:14.161Z,2.43
2019-04-11T06:27:49.558Z,2.17
2019-04-11T06:30:42.324Z,2.43
2019-04-11T06:33:19.225Z,1.97
2019-04-11T06:36:18.072Z,2.57
2019-04-11T06:39:09.293Z,2.93
2019-04-11T06:42:07.479Z,2.27
2019-04-11T06:45:06.414Z,2.83
2019-04-11T06:47:57.048Z,2.10
2019-04-11T06:50:53.554Z,1.90
2019-04-11T06:53:34.417Z,2.13
2019-04-11T06:56:16.888Z,1.60
2019-04-11T06:58:52.551Z,2.00
2019-04-11T07:01:25.862Z,2.50
2019-04-11T07:04:00.839Z,2.03
2019-04-11T07:06:32.969Z,1.70
2019-04-11T07:09:17.804Z,1.90
2019-04-11T07:11:50.916Z,1.43
2019-04-11T07:14:35.533Z,2.73
2019-04-11T07:17:23.685Z,2.30
2019-04-11T07:20:12.951Z,1.87
2019-04-11T07:23:01.575Z,1.70
2019-04-11T07:25:49.797Z,1.60
2019-04-11T07:28:29.468Z,1.37
2019-04-11T07:31:19.149Z,1.73
2019-04-11T07:34:10.531Z,1.97
2019-04-11T07:37:04.610Z,1.10
2019-04-11T07:40:03.255Z,0.90
2019-04-11T07:42:43.455Z,1.10
2019-04-11T07:45:18.898Z,1.30
2019-04-11T07:47:56.391Z,1.60
2019-04-11T07:50:27.668Z,1.17
2019-04-11T07:53:01.983Z,1.60
2019-04-11T07:55:34.399Z,1.80
2019-04-11T07:58:33.103Z,1.60
2019-04-11T08:01:29.446Z,1.70
2019-04-11T08:04:24.554Z,1.83
2019-04-11T08:07:20.027Z,1.97
2019-04-11T08:10:04.266Z,2.00
2019-04-11T08:12:34.896Z,2.17
2019-04-11T08:15:31.490Z,2.60
2019-04-11T08:18:08.082Z,1.67
2019-04-11T08:20:56.110Z,1.77
2019-04-11T08:23:27.754Z,1.90
2019-04-11T08:26:18.098Z,2.20
2019-04-11T08:28:59.582Z,1.50
2019-04-11T08:31:38.311Z,1.80
2019-04-11T08:34:09.004Z,1.63
2019-04-11T08:37:05.395Z,1.20
2019-04-11T08:39:42.492Z,1.20
2019-04-11T08:42:39.089Z,1.10
2019-04-11T08:45:12.740Z,1.40
2019-04-11T08:47:49.254Z,0.90
2019-04-11T08:50:22.637Z,1.17
2019-04-11T08:53:10.673Z,1.30
2019-04-11T08:55:53.607Z,1.50
2019-04-11T08:58:25.262Z,1.23
2019-04-11T09:01:00.446Z,1.30
2019-04-11T09:03:41.906Z,1.57
2019-04-11T09:06:18.814Z,1.27
2019-04-11T09:09:11.160Z,1.63
2019-04-11T09:11:47.184Z,1.63
2019-04-11T09:14:36.036Z,1.53
2019-04-11T09:17:21.634Z,1.70
2019-04-11T09:20:11.518Z,1.00
2019-04-11T09:23:13.523Z,1.50
2019-04-11T09:26:21.227Z,1.07
2019-04-11T09:28:54.203Z,1.20
2019-04-11T09:31:55.943Z,1.20
2019-04-11T09:34:37.732Z,1.30
2019-04-11T09:37:39.997Z,1.20
2019-04-11T09:40:32.100Z,1.77
2019-04-11T09:43:22.292Z,1.50
2019-04-11T09:46:18.595Z,1.37
2019-04-11T09:49:08.736Z,1.60
2019-04-11T09:51:56.643Z,1.33
2019-04-11T09:54:48.797Z,1.80
2019-04-11T09:57:28.987Z,1.43
2019-04-11T10:00:28.723Z,1.27
2019-04-11T10:03:15.403Z,1.00
2019-04-11T10:05:54.665Z,1.13
2019-04-11T10:08:35.156Z,1.07
2019-04-11T10:11:24.122Z,1.80
2019-04-11T10:14:01.694Z,1.70
2019-04-11T10:16:52.527Z,1.93
2019-04-11T10:19:27.705Z,1.73
2019-04-11T10:22:06.869Z,2.00
2019-04-11T10:24:58.921Z,2.10
2019-04-11T10:27:49.138Z,1.43
2019-04-11T10:30:37.705Z,1.63
2019-04-11T10:33:15.008Z,2.77
2019-04-11T10:36:14.615Z,1.30
2019-04-11T10:38:45.084Z,1.20
2019-04-11T10:41:28.623Z,1.80
2019-04-11T10:43:59.781Z,1.10
2019-04-11T10:46:59.778Z,1.67
2019-04-11T10:49:50.466Z,1.80
2019-04-11T10:52:26.965Z,1.67
2019-04-11T10:55:09.476Z,2.00
2019-04-11T10:57:48.692Z,1.73
2019-04-11T11:00:24.799Z,1.90
2019-04-11T11:03:20.347Z,1.50
2019-04-11T11:05:53.683Z,1.20
2019-04-11T11:08:49.940Z,0.63
2019-04-11T11:11:28.273Z,1.37
2019-04-11T11:14:24.827Z,1.00
2019-04-11T11:17:43.797Z,1.70
2019-04-11T11:20:27.423Z,2.10
2019-04-11T11:23:31.073Z,1.50
2019-04-11T11:26:12.626Z,1.50
2019-04-11T11:28:52.649Z,1.37
2019-04-11T11:31:42.748Z,0.97
2019-04-11T11:34:21.234Z,1.37
2019-04-11T11:37:24.829Z,1.40
2019-04-11T11:40:18.671Z,1.30
2019-04-11T11:43:10.747Z,0.60
2019-04-11T11:45:59.322Z,1.03
2019-04-11T11:49:00.736Z,0.67
2019-04-11T11:51:47.819Z,1.30
2019-04-11T11:54:29.422Z,1.87
2019-04-11T11:57:04.796Z,0.90
2019-04-11T11:59:54.032Z,1.10
2019-04-11T12:02:38.932Z,1.30
2019-04-11T12:05:26.107Z,1.20
2019-04-11T12:08:18.163Z,1.10
2019-04-11T12:10:54.478Z,1.00
2019-04-11T12:13:45.523Z,0.97
2019-04-11T12:16:41.743Z,1.30
2019-04-11T12:19:20.326Z,1.20
2019-04-11T12:21:52.123Z,1.27
2019-04-11T12:24:28.499Z,1.10
2019-04-11T12:27:11.856Z,1.27
2019-04-11T12:30:03.228Z,1.10
2019-04-11T12:32:34.846Z,1.20
2019-04-11T12:35:15.742Z,1.67
2019-04-11T12:37:52.990Z,1.73
2019-04-11T12:40:41.014Z,1.03
2019-04-11T12:43:12.080Z,1.40
2019-04-11T12:46:04.876Z,1.30
2019-04-11T12:48:42.340Z,1.23
2019-04-11T12:51:38.096Z,1.53
2019-04-11T12:54:14.236Z,1.43
2019-04-11T12:57:02.414Z,1.10
2019-04-11T12:59:32.930Z,1.53
2019-04-11T13:02:37.665Z,1.13
2019-04-11T13:05:10.010Z,1.37
2019-04-11T13:07:59.450Z,1.30
2019-04-11T13:10:35.627Z,1.20
2019-04-11T13:13:25.159Z,1.40
2019-04-11T13:16:12.402Z,0.70
2019-04-11T13:19:05.205Z,0.90
2019-04-11T13:21:50.850Z,0.87
2019-04-11T13:24:43.256Z,0.70
2019-04-11T13:27:18.868Z,1.13
2019-04-11T13:30:08.243Z,0.90
2019-04-11T13:32:44.853Z,1.00
2019-04-11T13:35:37.911Z,1.30
2019-04-11T13:38:10.535Z,1.13
2019-04-11T13:41:02.998Z,1.00
2019-04-11T13:43:44.910Z,1.30
2019-04-11T13:46:46.350Z,1.30
2019-04-11T13:49:36.848Z,1.27
2019-04-11T13:52:26.476Z,1.10
2019-04-11T13:55:27.640Z,0.77
2019-04-11T13:58:17.076Z,1.00
2019-04-11T14:00:51.624Z,1.00
2019-04-11T14:03:43.776Z,1.00
2019-04-11T14:06:18.758Z,0.77
2019-04-11T14:09:01.492Z,1.63
2019-04-11T14:11:34.392Z,1.50
2019-04-11T14:14:14.640Z,2.70
2019-04-11T14:17:02.835Z,1.20
2019-04-11T14:20:08.763Z,1.37
2019-04-11T14:22:52.954Z,1.80
2019-04-11T14:25:35.995Z,2.13
2019-04-11T14:28:08.221Z,1.53
2019-04-11T14:30:43.147Z,1.90
2019-04-11T14:33:13.713Z,1.60
2019-04-11T14:36:02.024Z,1.60
2019-04-11T14:38:32.927Z,1.40
2019-04-11T14:41:23.642Z,1.80
2019-04-11T14:43:58.522Z,1.50
2019-04-11T14:46:47.058Z,1.50
2019-04-11T14:49:18.575Z,1.80
2019-04-11T14:52:06.795Z,2.33
2019-04-11T14:54:42.749Z,2.90
2019-04-11T14:57:23.413Z,2.00
2019-04-11T14:59:58.141Z,1.63
2019-04-11T15:02:56.665Z,2.10
2019-04-11T15:05:45.359Z,2.03
2019-04-11T15:08:20.001Z,1.13
2019-04-11T15:11:24.705Z,1.80
2019-04-11T15:13:58.943Z,1.67
2019-04-11T15:16:59.882Z,1.50
2019-04-11T15:19:30.552Z,1.60
2019-04-11T15:22:24.762Z,1.63
2019-04-11T15:24:59.182Z,1.60
2019-04-11T15:27:48.412Z,1.60
2019-04-11T15:30:18.851Z,1.30
2019-04-11T15:33:07.124Z,1.60
2019-04-11T15:35:37.527Z,2.13
2019-04-11T15:38:27.024Z,1.97
2019-04-11T15:40:59.116Z,1.63
2019-04-11T15:43:47.436Z,2.17
2019-04-11T15:46:23.115Z,2.30
2019-04-11T15:49:20.419Z,2.03
2019-04-11T15:51:47.410Z,1.90
2019-04-11T15:54:42.877Z,2.10
2019-04-11T15:57:17.636Z,2.50
2019-04-11T16:00:07.312Z,3.03
2019-04-11T16:02:58.447Z,2.00
2019-04-11T16:05:47.904Z,2.17
2019-04-11T16:08:29.599Z,2.50
2019-04-11T16:11:25.203Z,2.73
2019-04-11T16:14:06.901Z,2.43
2019-04-11T16:16:50.411Z,2.23
2019-04-11T16:19:38.503Z,3.30
2019-04-11T16:22:26.513Z,2.10
2019-04-11T16:24:58.883Z,2.60
2019-04-11T16:27:46.777Z,3.10
2019-04-11T16:30:19.507Z,3.43
2019-04-11T16:33:12.016Z,3.17
2019-04-11T16:35:48.320Z,3.13
2019-04-11T16:38:20.007Z,3.70
2019-04-11T16:41:08.215Z,4.10
2019-04-11T16:43:39.389Z,3.73
2019-04-11T16:46:28.651Z,5.97
2019-04-11T16:48:59.316Z,4.33
2019-04-11T16:51:31.431Z,4.23
2019-04-11T16:54:01.836Z,5.43
2019-04-11T16:56:32.340Z,5.13
2019-04-11T16:59:02.926Z,4.03
2019-04-11T17:01:33.348Z,3.00
2019-04-11T17:04:04.139Z,3.93
2019-04-11T17:06:55.407Z,3.17
2019-04-11T17:09:32.629Z,4.73
2019-04-11T17:12:03.078Z,4.70
2019-04-11T17:14:33.850Z,6.37
2019-04-11T17:17:14.533Z,5.97
2019-04-11T17:19:36.879Z,7.07
2019-04-11T17:22:08.292Z,5.90
2019-04-11T17:24:38.734Z,9.60
2019-04-11T17:27:09.271Z,12.03
2019-04-11T17:29:39.573Z,9.13
2019-04-11T17:32:14.014Z,7.17
2019-04-11T17:34:44.436Z,10.37
2019-04-11T17:37:14.738Z,14.73
2019-04-11T17:39:45.115Z,8.63
2019-04-11T17:42:15.874Z,18.57
2019-04-11T17:44:46.200Z,14.23
2019-04-11T17:47:16.518Z,12.03
2019-04-11T17:49:47.163Z,10.10
2019-04-11T17:52:17.496Z,8.60
2019-04-11T17:54:47.986Z,8.10
2019-04-11T17:57:18.306Z,8.03
2019-04-11T17:59:48.844Z,8.40
2019-04-11T18:02:19.477Z,7.30
2019-04-11T18:04:49.887Z,5.17
2019-04-11T18:07:20.164Z,4.80
2019-04-11T18:09:50.811Z,4.87
2019-04-11T18:12:21.353Z,3.53
2019-04-11T18:14:51.682Z,4.93
2019-04-11T18:17:22.249Z,4.67
2019-04-11T18:19:52.643Z,4.77
2019-04-11T18:22:22.917Z,4.07
2019-04-11T18:24:53.489Z,4.20
2019-04-11T18:27:23.770Z,4.07
2019-04-11T18:29:54.297Z,4.63
2019-04-11T18:32:25.195Z,5.63
2019-04-11T18:34:55.638Z,3.47
2019-04-11T18:37:26.332Z,3.50
2019-04-11T18:39:57.027Z,3.53
2019-04-11T18:42:27.732Z,4.10
2019-04-11T18:44:58.430Z,3.67
2019-04-11T18:47:28.841Z,2.60
2019-04-11T18:49:59.201Z,2.83
2019-04-11T18:52:29.538Z,2.27
2019-04-11T18:54:59.961Z,2.30
2019-04-11T18:57:30.276Z,1.80
2019-04-11T19:00:01.989Z,2.23
2019-04-11T19:02:34.090Z,2.00
2019-04-11T19:05:05.397Z,3.00
2019-04-11T19:07:36.061Z,2.90
2019-04-11T19:10:08.476Z,3.50
2019-04-11T19:12:39.022Z,3.67
2019-04-11T19:15:10.213Z,3.77
2019-04-11T19:17:40.687Z,3.20
2019-04-11T19:20:10.998Z,2.90
2019-04-11T19:22:41.782Z,3.63
2019-04-11T19:25:12.530Z,3.60
2019-04-11T19:27:42.915Z,3.40
2019-04-11T19:30:14.094Z,3.63
2019-04-11T19:32:44.664Z,4.47
2019-04-11T19:35:15.370Z,3.20
2019-04-11T19:37:46.791Z,4.70
2019-04-11T19:40:17.192Z,3.77
2019-04-11T19:42:49.805Z,3.07
2019-04-11T19:45:20.323Z,3.23
2019-04-11T19:47:52.242Z,3.20
2019-04-11T19:50:22.861Z,3.57
2019-04-11T19:52:53.183Z,3.47
2019-04-11T19:55:38.088Z,3.13
2019-04-11T19:58:08.838Z,3.20
2019-04-11T20:00:39.490Z,3.40
2019-04-11T20:03:09.901Z,3.30
2019-04-11T20:05:40.596Z,2.50
2019-04-11T20:08:12.339Z,2.90
2019-04-11T20:10:43.334Z,2.10
2019-04-11T20:13:13.821Z,2.37
2019-04-11T20:15:44.356Z,1.53
2019-04-11T20:18:15.132Z,1.57
2019-04-11T20:20:46.045Z,1.67
2019-04-11T20:23:16.320Z,2.20
2019-04-11T20:25:49.722Z,1.50
2019-04-11T20:28:20.720Z,2.20
2019-04-11T20:30:51.413Z,2.03
2019-04-11T20:33:27.425Z,1.90
2019-04-11T20:35:54.241Z,1.70
2019-04-11T20:38:25.965Z,1.87
2019-04-11T20:40:56.655Z,2.20
2019-04-11T20:43:26.969Z,2.37
2019-04-11T20:45:58.665Z,3.07
2019-04-11T20:48:30.868Z,2.70
2019-04-11T20:51:01.430Z,2.23
2019-04-11T20:53:31.745Z,3.33
2019-04-11T20:56:02.042Z,3.13
2019-04-11T20:58:32.691Z,3.70
2019-04-11T21:01:03.769Z,3.90
2019-04-11T21:03:34.269Z,3.87
2019-04-11T21:06:04.565Z,3.73
2019-04-11T21:08:36.715Z,4.47
2019-04-11T21:11:07.196Z,3.13
2019-04-11T21:13:38.374Z,2.93
2019-04-11T21:16:09.336Z,3.67
2019-04-11T21:18:39.726Z,3.47
2019-04-11T21:21:10.048Z,3.30
2019-04-11T21:23:40.651Z,4.70
2019-04-11T21:26:10.957Z,3.60
2019-04-11T21:28:41.390Z,4.13
2019-04-11T21:31:11.673Z,2.93
2019-04-11T21:33:42.291Z,3.17
2019-04-11T21:36:12.669Z,3.73
2019-04-11T21:38:43.047Z,4.40
2019-04-11T21:41:13.570Z,3.87
2019-04-11T21:43:43.823Z,3.83
2019-04-11T21:46:14.144Z,3.60
2019-04-11T21:48:44.448Z,3.10
2019-04-11T21:51:14.766Z,3.80
2019-04-11T21:53:45.476Z,4.27
2019-04-11T21:56:18.547Z,3.10
2019-04-11T21:58:50.091Z,3.40
2019-04-11T22:01:22.005Z,3.97
2019-04-11T22:03:57.837Z,3.80
2019-04-11T22:06:30.069Z,4.90
2019-04-11T22:09:00.297Z,5.23
2019-04-11T22:11:32.261Z,6.70
2019-04-11T22:14:02.554Z,6.80
2019-04-11T22:16:32.931Z,6.90
2019-04-11T22:19:03.234Z,6.77
2019-04-11T22:21:33.559Z,7.03
2019-04-11T22:24:03.874Z,6.00
2019-04-11T22:26:34.195Z,5.80
2019-04-11T22:29:04.490Z,6.40
2019-04-11T22:31:34.885Z,5.87
2019-04-11T22:34:10.289Z,6.57
2019-04-11T22:36:40.859Z,6.17
2019-04-11T22:39:11.386Z,6.43
2019-04-11T22:41:41.713Z,6.00
2019-04-11T22:44:12.190Z,5.27
2019-04-11T22:46:42.532Z,6.00
2019-04-11T22:49:12.909Z,5.83
2019-04-11T22:51:43.870Z,5.50
2019-04-11T22:54:14.375Z,6.37
2019-04-11T22:56:44.722Z,6.07
2019-04-11T22:59:15.152Z,5.87
2019-04-11T23:01:46.976Z,5.70
2019-04-11T23:04:17.797Z,6.30
2019-04-11T23:06:48.656Z,5.77
2019-04-11T23:09:19.776Z,7.33
2019-04-11T23:11:50.323Z,9.53
2019-04-11T23:14:20.681Z,7.33
2019-04-11T23:16:51.003Z,6.47
2019-04-11T23:19:21.639Z,6.17
2019-04-11T23:21:52.559Z,5.50
2019-04-11T23:24:22.940Z,4.87
2019-04-11T23:26:53.838Z,6.73
2019-04-11T23:29:24.475Z,7.00
2019-04-11T23:31:54.816Z,7.00
2019-04-11T23:34:25.311Z,6.63
2019-04-11T23:36:56.056Z,6.23
2019-04-11T23:39:26.437Z,6.03
2019-04-11T23:41:56.810Z,5.67
2019-04-11T23:44:27.457Z,6.37
2019-04-11T23:46:57.765Z,6.77
2019-04-11T23:49:28.418Z,6.53
2019-04-11T23:51:58.842Z,6.90
2019-04-11T23:54:29.850Z,7.43
2019-04-11T23:57:01.517Z,5.43
2019-04-11T23:59:32.822Z,6.67
